createdAt,value
2023-03-23T15:58:35.536Z,6.34
2023-03-23T16:01:08.223Z,7.19
2023-03-23T16:03:39.145Z,6.23
2023-03-23T16:06:06.194Z,6.28
2023-03-23T16:08:32.721Z,6.59
2023-03-23T16:11:00.360Z,6.53
2023-03-23T16:13:28.442Z,6.30
2023-03-23T16:15:55.522Z,6.76
2023-03-23T16:18:22.738Z,6.54
2023-03-23T16:20:50.408Z,6.53
2023-03-23T16:23:17.447Z,6.25
2023-03-23T16:25:44.582Z,6.98
2023-03-23T16:28:13.018Z,6.79
2023-03-23T16:30:41.060Z,6.25
2023-03-23T16:33:08.540Z,6.02
2023-03-23T16:35:35.855Z,6.20
2023-03-23T16:38:06.957Z,6.40
2023-03-23T16:40:35.778Z,6.24
2023-03-23T16:43:02.309Z,6.19
2023-03-23T16:45:36.092Z,6.15
2023-03-23T16:48:02.655Z,6.63
2023-03-23T16:50:29.941Z,6.72
2023-03-23T16:52:57.183Z,7.33
2023-03-23T16:55:26.156Z,7.41
2023-03-23T16:57:58.182Z,7.24
2023-03-23T17:00:33.166Z,7.78
2023-03-23T17:03:00.203Z,6.79
2023-03-23T17:05:28.395Z,6.47
2023-03-23T17:07:56.019Z,6.90
2023-03-23T17:10:24.391Z,6.25
2023-03-23T17:12:51.071Z,5.81
2023-03-23T17:15:17.989Z,6.69
2023-03-23T17:17:44.795Z,6.88
2023-03-23T17:20:12.247Z,6.68
2023-03-23T17:22:40.232Z,6.79
2023-03-23T17:25:08.393Z,6.41
2023-03-23T17:27:36.377Z,6.54
2023-03-23T17:30:04.450Z,6.61
2023-03-23T17:32:31.233Z,7.28
2023-03-23T17:34:58.115Z,6.08
2023-03-23T17:37:25.497Z,5.93
2023-03-23T17:39:52.851Z,5.82
2023-03-23T17:42:19.507Z,6.73
2023-03-23T17:44:46.212Z,7.25
2023-03-23T17:47:12.947Z,6.73
2023-03-23T17:49:39.718Z,6.61
2023-03-23T17:52:06.619Z,6.46
2023-03-23T17:54:33.175Z,7.54
2023-03-23T17:57:00.999Z,7.28
2023-03-23T17:59:29.531Z,7.24
2023-03-23T18:01:56.553Z,6.17
2023-03-23T18:04:23.241Z,6.90
2023-03-23T18:06:49.923Z,6.88
2023-03-23T18:09:16.805Z,7.36
2023-03-23T18:11:43.418Z,7.48
2023-03-23T18:14:10.268Z,7.47
2023-03-23T18:16:37.124Z,7.59
2023-03-23T18:19:03.718Z,7.26
2023-03-23T18:21:30.497Z,7.33
2023-03-23T18:23:59.898Z,7.47
2023-03-23T18:26:27.203Z,7.20
2023-03-23T18:28:54.084Z,6.96
2023-03-23T18:31:21.658Z,6.36
2023-03-23T18:33:49.809Z,7.30
2023-03-23T18:36:18.122Z,6.91
2023-03-23T18:38:48.802Z,6.72
2023-03-23T18:41:16.870Z,7.31
2023-03-23T18:43:43.708Z,9.22
2023-03-23T18:46:10.274Z,7.45
2023-03-23T18:48:37.597Z,7.00
2023-03-23T18:51:04.550Z,6.52
2023-03-23T18:53:31.303Z,6.15
2023-03-23T18:56:08.984Z,5.86
2023-03-23T18:58:35.936Z,5.67
2023-03-23T19:01:04.522Z,6.05
2023-03-23T19:03:31.314Z,5.41
2023-03-23T19:05:59.761Z,5.34
2023-03-23T19:08:27.606Z,4.74
2023-03-23T19:11:00.075Z,4.67
2023-03-23T19:13:27.849Z,5.44
2023-03-23T19:15:54.842Z,4.68
2023-03-23T19:18:22.435Z,5.00
2023-03-23T19:23:21.052Z,5.19
2023-03-23T19:25:47.885Z,5.16
2023-03-23T19:30:49.195Z,4.91
2023-03-23T19:33:16.571Z,4.72
2023-03-23T19:35:44.540Z,4.90
2023-03-23T19:38:11.586Z,4.72
2023-03-23T19:40:42.086Z,4.64
2023-03-23T19:43:09.711Z,4.56
2023-03-23T19:45:37.028Z,4.79
2023-03-23T19:48:04.179Z,4.59
2023-03-23T19:50:31.735Z,4.46
2023-03-23T19:53:00.076Z,4.72
2023-03-23T19:55:27.294Z,5.71
2023-03-23T19:57:54.057Z,4.75
2023-03-23T20:00:20.806Z,4.72
2023-03-23T20:02:49.721Z,4.97
2023-03-23T20:05:16.602Z,4.58
2023-03-23T20:07:46.444Z,4.52
2023-03-23T20:10:16.940Z,4.71
2023-03-23T20:12:43.795Z,4.54
2023-03-23T20:15:10.435Z,5.04
2023-03-23T20:17:37.538Z,4.86
2023-03-23T20:20:10.332Z,5.04
2023-03-23T20:22:37.612Z,5.24
2023-03-23T20:25:04.565Z,5.13
2023-03-23T20:27:32.365Z,4.81
2023-03-23T20:29:59.199Z,4.92
2023-03-23T20:32:26.137Z,4.95
2023-03-23T20:34:52.737Z,5.10
2023-03-23T20:37:20.763Z,5.35
2023-03-23T20:39:48.867Z,5.69
2023-03-23T20:42:16.947Z,5.64
2023-03-23T20:44:43.929Z,5.90
2023-03-23T20:47:10.746Z,5.69
2023-03-23T20:49:38.437Z,5.95
2023-03-23T20:52:06.887Z,6.19
2023-03-23T20:54:33.424Z,6.47
2023-03-23T20:57:00.430Z,6.74
2023-03-23T20:59:28.208Z,6.89
2023-03-23T21:01:55.524Z,6.46
2023-03-23T21:04:27.272Z,6.93
2023-03-23T21:06:54.736Z,7.07
2023-03-23T21:09:22.426Z,7.18
2023-03-23T21:11:49.707Z,7.35
2023-03-23T21:14:16.828Z,7.16
2023-03-23T21:16:43.841Z,7.50
2023-03-23T21:19:11.917Z,6.95
2023-03-23T21:21:55.742Z,7.50
2023-03-23T21:24:26.539Z,7.15
2023-03-23T21:26:54.184Z,7.07
2023-03-23T21:29:22.271Z,7.34
2023-03-23T21:31:55.014Z,6.82
2023-03-23T21:34:32.264Z,7.15
2023-03-23T21:36:59.122Z,7.19
2023-03-23T21:39:26.361Z,6.70
2023-03-23T21:41:52.969Z,6.66
2023-03-23T21:44:19.426Z,6.64
2023-03-23T21:46:46.029Z,6.49
2023-03-23T21:49:16.191Z,6.85
2023-03-23T21:51:43.521Z,6.84
2023-03-23T21:54:10.649Z,6.39
2023-03-23T21:56:37.645Z,6.48
2023-03-23T21:59:04.872Z,6.68
2023-03-23T22:01:31.709Z,6.18
2023-03-23T22:03:58.368Z,6.06
2023-03-23T22:06:28.243Z,5.91
2023-03-23T22:08:55.415Z,6.16
2023-03-23T22:11:24.710Z,5.59
2023-03-23T22:13:52.862Z,6.30
2023-03-23T22:16:20.751Z,5.86
2023-03-23T22:18:48.292Z,6.20
2023-03-23T22:21:16.244Z,6.16
2023-03-23T22:23:43.815Z,6.26
2023-03-23T22:26:12.227Z,5.95
2023-03-23T22:28:39.874Z,5.88
2023-03-23T22:31:08.714Z,5.56
2023-03-23T22:33:36.868Z,5.52
2023-03-23T22:36:06.392Z,5.66
2023-03-23T22:38:33.828Z,5.19
2023-03-23T22:41:02.888Z,5.08
2023-03-23T22:43:29.649Z,4.98
2023-03-23T22:45:56.624Z,5.01
2023-03-23T22:48:25.740Z,4.74
2023-03-23T22:50:52.343Z,5.04
2023-03-23T22:53:19.563Z,4.92
2023-03-23T22:55:51.088Z,4.98
2023-03-23T22:58:18.377Z,5.18
2023-03-23T23:00:47.314Z,5.23
2023-03-23T23:03:14.081Z,5.35
2023-03-23T23:05:42.163Z,4.97
2023-03-23T23:08:13.289Z,5.05
2023-03-23T23:10:41.775Z,4.85
2023-03-23T23:13:09.444Z,4.75
2023-03-23T23:15:36.884Z,4.90
2023-03-23T23:18:05.003Z,4.85
2023-03-23T23:20:33.368Z,5.18
2023-03-23T23:23:01.097Z,5.30
2023-03-23T23:25:28.836Z,5.75
2023-03-23T23:27:56.128Z,5.43
2023-03-23T23:30:22.963Z,5.64
2023-03-23T23:32:49.775Z,5.64
2023-03-23T23:35:16.789Z,5.63
2023-03-23T23:37:43.500Z,5.47
2023-03-23T23:40:11.158Z,5.27
2023-03-23T23:42:37.727Z,4.91
2023-03-23T23:45:04.435Z,5.22
2023-03-23T23:47:31.016Z,5.43
2023-03-23T23:49:57.585Z,5.09
2023-03-23T23:52:24.443Z,5.26
2023-03-23T23:54:52.623Z,5.13
2023-03-23T23:57:19.188Z,5.35
2023-03-23T23:59:45.786Z,5.42
